createdAt,value
2019-01-14T12:42:55.526Z,101421.48
2019-01-14T12:45:25.073Z,101430.27
2019-01-14T12:47:54.499Z,101433.52
2019-01-14T12:50:23.986Z,101446.59
2019-01-14T12:58:09.274Z,101445.44
2019-01-14T13:00:38.613Z,101451.64
2019-01-14T13:03:11.047Z,101443.23
2019-01-14T13:05:40.383Z,101451.23
2019-01-14T13:08:09.739Z,101449.80
2019-01-14T13:10:39.072Z,101450.64
2019-01-14T13:13:08.515Z,101454.98
2019-01-14T13:15:38.096Z,101462.59
2019-01-14T13:18:07.401Z,101469.30
2019-01-14T13:20:36.759Z,101463.41
2019-01-14T13:23:06.210Z,101464.61
2019-01-14T13:25:35.520Z,101462.14
2019-01-14T13:28:04.826Z,101461.89
2019-01-14T13:30:34.110Z,101466.42
2019-01-14T13:33:03.387Z,101463.41
2019-01-14T13:35:32.758Z,101472.90
2019-01-14T13:38:02.076Z,101468.97
2019-01-14T13:40:31.412Z,101482.91
2019-01-14T13:43:00.858Z,101486.55
2019-01-14T13:45:30.198Z,101489.69
2019-01-14T13:58:15.693Z,101549.03
2019-01-14T14:00:44.962Z,101564.55
2019-01-14T14:03:14.235Z,101559.38
2019-01-14T14:15:52.210Z,101544.48
2019-01-14T14:21:58.855Z,101555.28
2019-01-14T14:24:31.063Z,101559.70
2019-01-14T14:27:00.393Z,101571.75
2019-01-14T14:29:29.756Z,101572.41
2019-01-14T14:31:59.204Z,101572.76
2019-01-14T14:34:28.821Z,101574.52
2019-01-14T14:36:58.694Z,101575.61
2019-01-14T14:39:29.481Z,101578.46
2019-01-14T14:41:58.759Z,101578.57
2019-01-14T14:44:28.095Z,101587.52
2019-01-14T14:46:57.380Z,101596.06
2019-01-14T14:49:27.929Z,101597.44
2019-01-14T14:57:47.588Z,101596.35
2019-01-14T15:00:19.243Z,101606.37
2019-01-14T15:02:46.480Z,101609.13
2019-01-14T15:05:13.760Z,101615.69
2019-01-14T15:07:40.910Z,101620.04
2019-01-14T15:10:10.256Z,101627.95
2019-01-14T15:12:37.338Z,101628.77
2019-01-14T15:14:12.928Z,101628.17
2019-01-14T15:14:34.973Z,101633.58
2019-01-14T15:14:57.422Z,101634.45
2019-01-14T15:15:21.549Z,101637.13
2019-01-14T15:15:43.596Z,101639.80
2019-01-14T15:16:05.647Z,101630.87
2019-01-14T15:16:27.693Z,101637.12
2019-01-14T15:17:20.679Z,101643.30
2019-01-14T15:17:42.748Z,101641.55
2019-01-14T15:18:04.950Z,101641.55
2019-01-14T15:18:27.042Z,101640.22
2019-01-14T15:18:49.089Z,101642.45
2019-01-14T15:19:11.424Z,101646.45
2019-01-14T15:19:33.487Z,101644.67
2019-01-14T15:19:55.565Z,101645.11
2019-01-14T15:20:18.430Z,101646.00
2019-01-14T15:20:40.471Z,101648.23
2019-01-14T15:23:34.230Z,101643.27
2019-01-14T15:26:01.438Z,101644.20
2019-01-14T15:28:28.551Z,101653.59
2019-01-14T15:30:55.660Z,101659.84
2019-01-14T15:33:22.762Z,101666.09
2019-01-14T15:35:49.820Z,101663.40
2019-01-14T15:38:17.034Z,101662.96
2019-01-14T15:40:44.074Z,101666.99
2019-01-14T15:43:11.199Z,101670.16
2019-01-14T15:45:38.332Z,101675.05
2019-01-14T15:48:05.402Z,101676.81
2019-01-14T15:50:32.507Z,101683.53
2019-01-14T15:52:59.599Z,101683.58
2019-01-14T15:55:26.774Z,101680.92
2019-01-14T15:57:54.203Z,101681.85
2019-01-14T16:00:21.382Z,101687.20
2019-01-14T16:02:48.624Z,101688.50
2019-01-14T16:05:16.386Z,101692.97
2019-01-14T16:07:43.605Z,101692.05
2019-01-14T16:10:13.541Z,101702.30
2019-01-14T16:12:40.636Z,101701.40
2019-01-14T16:15:08.158Z,101705.86
2019-01-14T16:17:35.269Z,101703.16
2019-01-14T16:20:02.673Z,101704.94
2019-01-14T16:22:29.940Z,101704.06
2019-01-14T16:24:57.125Z,101707.65
2019-01-14T16:27:24.202Z,101713.93
2019-01-14T16:29:51.346Z,101718.45
2019-01-14T16:32:18.482Z,101731.44
2019-01-14T16:34:45.566Z,101730.14
2019-01-14T16:37:12.760Z,101735.51
2019-01-14T16:39:39.934Z,101733.31
2019-01-14T16:42:07.109Z,101730.20
2019-01-14T16:44:34.133Z,101731.11
2019-01-14T16:47:01.591Z,101731.61
2019-01-14T16:49:28.666Z,101734.29
2019-01-14T16:51:55.749Z,101738.75
2019-01-14T16:54:24.221Z,101746.79
2019-01-14T16:56:51.414Z,101747.27
2019-01-14T16:59:18.580Z,101744.17
2019-01-14T17:01:45.657Z,101749.09
2019-01-14T17:04:12.971Z,101752.67
2019-01-14T17:06:40.055Z,101745.09
2019-01-14T17:09:08.219Z,101745.55
2019-01-14T17:11:35.540Z,101747.77
2019-01-14T17:14:03.076Z,101743.77
2019-01-14T17:16:30.285Z,101750.88
2019-01-14T17:18:57.374Z,101746.42
2019-01-14T17:21:24.460Z,101741.94
2019-01-14T17:23:51.588Z,101741.48
2019-01-14T17:26:18.827Z,101749.06
2019-01-14T17:28:46.013Z,101749.95
2019-01-14T17:31:13.084Z,101753.08
2019-01-14T17:33:41.347Z,101757.53
2019-01-14T17:36:08.480Z,101768.23
2019-01-14T17:38:35.595Z,101778.04
2019-01-14T17:41:02.793Z,101774.02
2019-01-14T17:43:29.911Z,101793.66
2019-01-14T17:47:38.563Z,101815.94
2019-01-14T17:50:08.657Z,101822.59
2019-01-14T17:52:35.731Z,101821.69
2019-01-14T17:55:03.438Z,101812.31
2019-01-14T17:57:30.720Z,101823.92
2019-01-14T17:59:57.898Z,101817.67
2019-01-14T18:31:35.729Z,101877.55
2019-01-14T18:34:02.923Z,101889.80
2019-01-14T18:36:30.002Z,101906.48
2019-01-14T18:38:57.075Z,101921.42
2019-01-14T18:41:24.189Z,101925.37
2019-01-14T18:43:51.270Z,101932.08
2019-01-14T18:46:18.382Z,101945.11
2019-01-14T18:48:45.441Z,101946.58
2019-01-14T18:51:12.488Z,101944.39
2019-01-14T18:53:39.571Z,101954.70
2019-01-14T18:56:08.053Z,101959.48
2019-01-14T18:58:35.290Z,101954.44
2019-01-14T19:01:39.304Z,101967.48
2019-01-14T19:04:06.381Z,101964.92
2019-01-14T19:06:33.530Z,101972.99
2019-01-14T19:09:00.631Z,101973.84
2019-01-14T19:11:29.490Z,101976.48
2019-01-14T19:13:56.701Z,101984.75
2019-01-14T19:16:25.767Z,101980.74
2019-01-14T19:18:52.921Z,101984.09
2019-01-14T19:21:20.143Z,101987.16
2019-01-14T19:23:48.286Z,101980.33
2019-01-14T19:26:15.392Z,101979.50
2019-01-14T19:28:42.444Z,101985.20
2019-01-14T19:31:09.665Z,101990.52
2019-01-14T19:33:36.744Z,101991.09
2019-01-14T19:36:24.079Z,101996.17
2019-01-14T19:38:51.201Z,102000.47
2019-01-14T19:41:57.010Z,102002.05
2019-01-14T19:44:24.097Z,102003.18
2019-01-14T19:46:51.168Z,102003.73
2019-01-14T19:49:18.513Z,102008.58
2019-01-14T19:51:45.571Z,102005.80
2019-01-14T19:54:12.805Z,102011.51
2019-01-14T19:56:39.944Z,102013.60
2019-01-14T20:02:47.990Z,102017.94
2019-01-14T20:05:15.058Z,102018.73
2019-01-14T20:07:42.236Z,102022.12
2019-01-14T20:10:10.960Z,102025.23
2019-01-14T20:12:38.064Z,102022.42
2019-01-14T20:15:07.156Z,102039.55
2019-01-14T20:17:34.420Z,102031.62
2019-01-14T20:20:01.703Z,102035.92
2019-01-14T20:22:28.877Z,102038.02
2019-01-14T20:24:56.418Z,102036.39
2019-01-14T20:27:23.501Z,102040.97
2019-01-14T20:29:50.736Z,102038.44
2019-01-14T20:32:17.927Z,102043.92
2019-01-14T20:34:45.094Z,102041.14
2019-01-14T20:37:12.251Z,102046.23
2019-01-14T20:39:39.730Z,102035.21
2019-01-14T20:42:06.905Z,102041.48
2019-01-14T20:44:33.932Z,102044.09
2019-01-14T20:47:01.229Z,102044.44
2019-01-14T20:49:28.279Z,102039.57
2019-01-14T20:51:55.322Z,102033.52
2019-01-14T20:54:22.432Z,102039.16
2019-01-14T20:56:49.867Z,102040.17
2019-01-14T20:59:16.908Z,102041.08
2019-01-14T21:01:43.952Z,102038.70
2019-01-14T21:04:11.212Z,102034.73
2019-01-14T21:06:38.381Z,102034.34
2019-01-14T21:09:06.508Z,102030.44
2019-01-14T21:11:33.631Z,102028.62
2019-01-14T21:14:00.744Z,102032.64
2019-01-14T21:16:27.850Z,102034.63
2019-01-14T21:18:54.917Z,102038.64
2019-01-14T21:21:22.094Z,102035.70
2019-01-14T21:23:49.164Z,102040.53
2019-01-14T21:26:16.208Z,102045.45
2019-01-14T21:28:43.546Z,102044.61
2019-01-14T21:31:10.692Z,102040.77
2019-01-14T21:33:37.880Z,102037.20
2019-01-14T21:36:05.199Z,102029.47
2019-01-14T21:39:09.425Z,102031.84
2019-01-14T21:41:37.099Z,102040.83
2019-01-14T21:44:04.292Z,102044.73
2019-01-14T21:46:31.523Z,102049.92
2019-01-14T21:48:58.655Z,102047.48
2019-01-14T21:51:25.756Z,102055.95
2019-01-14T21:53:52.862Z,102056.00
2019-01-14T21:56:19.910Z,102054.08
2019-01-14T21:58:49.308Z,102060.22
2019-01-14T22:01:16.535Z,102060.89
2019-01-14T22:03:43.701Z,102052.08
2019-01-14T22:06:10.952Z,102049.92
2019-01-14T22:08:50.506Z,102057.33
2019-01-14T22:11:17.581Z,102063.19
2019-01-14T22:13:44.642Z,102056.70
2019-01-14T22:16:12.056Z,102060.47
2019-01-14T22:18:39.197Z,102057.88
2019-01-14T22:21:08.128Z,102058.04
2019-01-14T22:23:36.925Z,102059.84
2019-01-14T22:26:04.984Z,102056.78
2019-01-14T22:28:32.168Z,102066.70
2019-01-14T22:30:59.254Z,102065.67
2019-01-14T22:33:26.351Z,102058.52
2019-01-14T22:35:53.466Z,102059.81
2019-01-14T22:38:20.565Z,102059.45
2019-01-14T22:40:47.757Z,102062.56
2019-01-14T22:43:14.850Z,102058.44
2019-01-14T22:45:42.026Z,102062.75
2019-01-14T22:48:09.225Z,102067.05
2019-01-14T22:51:14.053Z,102071.20
2019-01-14T22:53:41.342Z,102066.02
2019-01-14T22:56:08.711Z,102070.97
2019-01-14T22:59:14.947Z,102069.74
2019-01-14T23:01:46.913Z,102070.28
2019-01-14T23:04:13.984Z,102067.81
2019-01-14T23:07:00.532Z,102065.06
2019-01-14T23:09:27.572Z,102070.14
2019-01-14T23:11:54.609Z,102073.16
2019-01-14T23:14:21.708Z,102067.81
2019-01-14T23:16:48.770Z,102066.64
2019-01-14T23:19:16.233Z,102067.30
2019-01-14T23:21:44.491Z,102068.36
2019-01-14T23:24:11.569Z,102074.72
2019-01-14T23:26:38.666Z,102073.81
2019-01-14T23:29:05.776Z,102075.00
2019-01-14T23:31:33.186Z,102074.13
2019-01-14T23:34:00.232Z,102077.37
2019-01-14T23:36:27.744Z,102078.41
2019-01-14T23:38:54.795Z,102081.02
2019-01-14T23:41:21.841Z,102087.02
2019-01-14T23:43:48.949Z,102080.00
2019-01-14T23:46:16.002Z,102085.82
2019-01-14T23:48:43.205Z,102084.67
2019-01-14T23:51:10.296Z,102081.81
2019-01-14T23:57:18.223Z,102078.43
2019-01-14T23:59:45.374Z,102075.35
